Stephenville, Texas
Current Conditions -  °F | °C
As of 2:15 PM on Sunday 25 Jan 2015 (Local Time) from KSEP Reporting Station
Clear Clear  
Wind Chill: 18°   Ceiling: Unl
Heat Index: 18°   Visibility: 10mi
Dew Point: -7°   Wind: 22mph
Humidity: 18%   Direction: 340°NNW
Pressure: 30.12"   Gusts: 31mph
Location:  32.22°N, 98.2°W
Report Text: KSEP 252015Z AUTO 34019G27KT 10SM CLR 18/M07 A3012 RMK AO2 T01801068
Loading
Personal Weather Stations






























Interactive Weather Map New forecast layout! Learn more

10-Day Weather Forecast

Advertisements
Track Severe Weather on mobile